Airfield :
LOGIN :

Register | Disclaimer

   EN    FR    IT 

 










Legend :    VFR   Marginal VFR   IFR   Intensive IFR   Very Intensive IFR
Visi :
Ceiling :
>= 8 km
>= 3000ft
5 to 8 km
1000 to 3000 ft
1500m to 5 km
500 to 1000 ft
800 to 1500m
200 to 500 ft
< 800m
< 200 ft
Symbols :   Thunderstorms  Fog  Heavy snow  Heavy precipitations  Wind > 20 kt
SIGMETs :     Misc.  Thunderstorms  Icing  Turbulence  Mountain Waves  Volcanic Ashes






- Airport Elevation : 364 ft


LFAQ - Albert Bray

CURRENT METAR :
  • 070600Z AUTO VRB03KT 9999 BKN004 12/12 Q1022 BECMG SCT030

EXPIRED METARs :
  • 070530Z AUTO VRB02KT 9999 FEW004 11/11 Q1022 TEMPO BKN007
  • 070500Z AUTO 22003KT 190V250 8000 FEW005 09/09 Q1022
  • 070430Z AUTO 21004KT 0350 0300 R27/0450D FG BKN004 08/08 Q1022
  • 070400Z AUTO 21004KT 4400 BR NSC 08/08 Q1022
  • 070330Z AUTO VRB03KT 6000 NSC 08/08 Q1022

TAF TAF LFAQ
Valid from the 07 at 06:00 until the 07 at 15:00 UTC


070500Z 0706/0715 VRB02KT 9999 SCT030
PROB30 0706/0707 BKN007
BECMG 0709/0712 27010KT



MET'MAP, your aeronautical weather chart ! - Copyright ORBIFLY December 2007 - Disclaimer

ORBIFLY MET'MAP TEAM :

Programming & Development : Alexandra Zaïnal
Concept & original design : Baudouin d'Aumeries
Assistance for programming : Marc-Olivier Méhu
Technical & hardware support : Manuel Goepfert

Contact : metmap@orbifly.com




SOURCES & CREDITS :

   NOAA